This is the latest recevied weather packets stored in our database for station/object WC4PEM-11. If no packets are shown the sender has not sent any weather packets the latest 10 day(s).
| Time | Temp. | Humidity | Pressure | Rain* | Wind** | Luminosity | Snow |
|---|---|---|---|---|---|---|---|
| 1787857839 | 28.33° C | 79% | 1016.4 hPa | 0 mm | - | - | - |
| 1787857696 | 28.33° C | 79% | 1016.4 hPa | 0 mm | - | - | - |
| 1787857396 | 27.78° C | 80% | 1016.5 hPa | 0 mm | - | - | - |
| 1787857096 | 27.22° C | 81% | 1016.6 hPa | 0 mm | - | - | - |
| 1787856869 | 27.22° C | 81% | 1016.6 hPa | 0 mm | - | - | - |
| 1787856796 | 27.22° C | 81% | 1016.6 hPa | 0 mm | - | - | - |
| 1787856496 | 27.78° C | 81% | 1016.8 hPa | 0 mm | - | - | - |
| 1787856196 | 27.78° C | 82% | 1017 hPa | 0 mm | - | - | - |
| 1787855896 | 27.78° C | 80% | 1017 hPa | 0 mm | - | - | - |
| 1787855596 | 27.78° C | 79% | 1016.9 hPa | 0 mm | - | - | - |
| 1787855296 | 28.33° C | 78% | 1017.1 hPa | 0 mm | - | - | - |
| 1787854996 | 27.78° C | 80% | 1017.2 hPa | 0 mm | - | - | - |
| 1787854696 | 27.78° C | 80% | 1017.4 hPa | 0 mm | - | - | - |
| 1787854555 | 27.78° C | 80% | 1017.6 hPa | 0 mm | - | - | - |
| 1787854396 | 27.78° C | 80% | 1017.6 hPa | 0 mm | - | - | - |
| 1787854096 | 28.33° C | 77% | 1017.6 hPa | 0 mm | - | - | - |
| 1787853796 | 28.33° C | 76% | 1017.6 hPa | 0 mm | - | - | - |
| 1787853496 | 28.89° C | 74% | 1017.4 hPa | 0 mm | - | - | - |
| 1787853196 | 29.44° C | 71% | 1017.3 hPa | 0 mm | - | - | - |
| 1787852896 | 31.11° C | 66% | 1016.9 hPa | 0 mm | - | - | - |
| 1787852596 | 32.22° C | 65% | 1016.7 hPa | 0 mm | - | - | - |
| 1787852298 | 32.78° C | 64% | 1016.6 hPa | 0 mm | - | - | - |
| 1787851996 | 32.78° C | 64% | 1016.7 hPa | 0 mm | - | - | - |
| 1787851696 | 32.78° C | 64% | 1016.8 hPa | 0 mm | - | - | - |
| 1787851396 | 32.78° C | 66% | 1016.9 hPa | 0 mm | - | - | - |
* Rain latest hour (hover to see other rain measurements)
** Current wind speed in m/s (hover to see current wind gust speed)